createdAt,value
2022-09-01T00:00:53.219Z,17.84
2022-09-01T00:03:55.757Z,17.83
2022-09-01T00:06:59.802Z,17.92
2022-09-01T00:10:05.295Z,17.97
2022-09-01T00:13:07.485Z,17.94
2022-09-01T00:16:12.128Z,17.85
2022-09-01T00:19:13.705Z,17.84
2022-09-01T00:22:15.413Z,17.86
2022-09-01T00:25:20.238Z,18.04
2022-09-01T00:28:21.928Z,17.76
2022-09-01T00:31:30.835Z,17.92
2022-09-01T00:34:32.337Z,17.86
2022-09-01T00:37:33.748Z,17.91
2022-09-01T00:40:35.523Z,17.76
2022-09-01T00:43:39.239Z,17.87
2022-09-01T00:46:49.650Z,17.62
2022-09-01T00:49:53.619Z,17.70
2022-09-01T00:52:55.672Z,17.66
2022-09-01T00:55:57.460Z,17.73
2022-09-01T00:58:59.901Z,17.62
2022-09-01T01:02:01.630Z,17.63
2022-09-01T01:05:03.718Z,17.68
2022-09-01T01:08:08.102Z,17.70
2022-09-01T01:11:10.740Z,17.74
2022-09-01T01:14:12.333Z,17.50
2022-09-01T01:17:13.857Z,17.61
2022-09-01T01:20:37.047Z,17.88
2022-09-01T01:27:42.893Z,17.85
2022-09-01T01:31:11.950Z,17.96
2022-09-01T01:34:16.474Z,17.95
2022-09-01T01:37:18.730Z,18.00
2022-09-01T01:40:22.893Z,18.02
2022-09-01T01:43:26.395Z,17.85
2022-09-01T01:46:28.095Z,17.85
2022-09-01T01:49:31.051Z,17.92
2022-09-01T01:52:34.765Z,17.92
2022-09-01T01:55:36.380Z,17.91
2022-09-01T01:58:39.244Z,17.94
2022-09-01T02:01:42.854Z,18.13
2022-09-01T02:04:44.420Z,18.07
2022-09-01T02:07:46.505Z,17.97
2022-09-01T02:10:52.405Z,17.91
2022-09-01T02:13:57.314Z,17.69
2022-09-01T02:16:59.414Z,17.72
2022-09-01T02:20:01.178Z,17.66
2022-09-01T02:23:09.263Z,17.52
2022-09-01T02:26:16.671Z,17.44
2022-09-01T02:29:22.171Z,17.35
2022-09-01T02:32:23.722Z,17.16
2022-09-01T02:35:34.203Z,17.21
2022-09-01T02:38:36.047Z,17.11
2022-09-01T02:41:41.210Z,17.13
2022-09-01T02:44:43.532Z,16.92
2022-09-01T02:47:47.561Z,16.86
2022-09-01T02:50:49.417Z,16.78
2022-09-01T02:53:52.747Z,16.76
2022-09-01T02:56:54.658Z,16.64
2022-09-01T02:59:58.826Z,16.79
2022-09-01T03:03:01.834Z,16.74
2022-09-01T03:06:05.151Z,16.71
2022-09-01T03:09:11.263Z,16.93
2022-09-01T03:12:13.002Z,16.72
2022-09-01T03:15:14.715Z,16.77
2022-09-01T03:18:18.688Z,16.58
2022-09-01T03:21:20.943Z,16.54
2022-09-01T03:24:22.530Z,16.76
2022-09-01T03:27:24.709Z,16.54
2022-09-01T03:30:26.918Z,16.80
2022-09-01T03:33:28.561Z,16.79
2022-09-01T03:36:30.999Z,16.51
2022-09-01T03:39:32.482Z,16.57
2022-09-01T03:42:33.982Z,16.69
2022-09-01T03:45:38.516Z,16.49
2022-09-01T03:48:40.063Z,16.29
2022-09-01T03:51:44.318Z,16.21
2022-09-01T03:54:45.978Z,16.46
2022-09-01T03:57:47.429Z,16.48
2022-09-01T04:01:02.920Z,16.27
2022-09-01T04:04:07.760Z,16.54
2022-09-01T04:07:09.300Z,16.60
2022-09-01T04:10:18.527Z,16.35
2022-09-01T04:13:24.245Z,16.09
2022-09-01T04:16:47.500Z,15.87
2022-09-01T04:19:49.130Z,15.81
2022-09-01T04:22:52.660Z,15.79
2022-09-01T04:26:09.139Z,15.68
2022-09-01T04:29:11.670Z,15.64
2022-09-01T04:32:13.506Z,15.52
2022-09-01T04:35:17.034Z,15.72
2022-09-01T04:38:18.853Z,15.67
2022-09-01T04:41:26.292Z,15.81
2022-09-01T04:44:28.378Z,15.63
2022-09-01T04:47:35.545Z,15.44
2022-09-01T04:50:41.043Z,15.33
2022-09-01T04:53:48.620Z,15.41
2022-09-01T04:56:52.873Z,15.56
2022-09-01T04:59:56.848Z,15.60
2022-09-01T05:03:04.584Z,15.78
2022-09-01T05:06:13.227Z,15.99
2022-09-01T05:09:17.521Z,16.05
2022-09-01T05:12:22.980Z,16.11
2022-09-01T05:15:24.668Z,16.07
2022-09-01T05:18:28.403Z,16.05
2022-09-01T05:21:30.613Z,16.14
2022-09-01T05:24:32.465Z,16.11
2022-09-01T05:27:34.277Z,16.14
2022-09-01T05:30:57.730Z,16.05
2022-09-01T05:34:01.808Z,16.35
2022-09-01T05:37:03.819Z,16.46
2022-09-01T05:40:09.736Z,16.43
2022-09-01T05:43:14.870Z,16.41
2022-09-01T05:46:19.461Z,16.33
2022-09-01T05:49:21.013Z,16.44
2022-09-01T05:52:25.039Z,16.54
2022-09-01T05:55:27.869Z,16.22
2022-09-01T05:59:22.426Z,16.35
2022-09-01T06:01:54.791Z,16.33
2022-09-01T06:04:57.140Z,16.37
2022-09-01T06:07:59.127Z,16.34
2022-09-01T06:11:01.069Z,16.42
2022-09-01T06:14:03.218Z,16.57
2022-09-01T06:17:06.695Z,16.59
2022-09-01T06:20:11.831Z,16.72
2022-09-01T06:23:17.980Z,16.66
2022-09-01T06:26:31.566Z,16.77
2022-09-01T06:29:33.130Z,16.90
2022-09-01T06:32:38.491Z,16.88
2022-09-01T06:35:47.123Z,17.08
2022-09-01T06:38:53.063Z,17.04
2022-09-01T06:41:54.876Z,17.11
2022-09-01T06:44:56.450Z,17.10
2022-09-01T06:48:00.149Z,17.07
2022-09-01T06:54:25.586Z,17.45
2022-09-01T07:00:52.179Z,17.72
2022-09-01T07:03:57.080Z,17.82
2022-09-01T07:06:59.167Z,17.78
2022-09-01T07:10:25.849Z,17.81
2022-09-01T07:13:28.069Z,17.80
2022-09-01T07:16:38.560Z,18.02
2022-09-01T07:19:50.744Z,18.14
2022-09-01T07:23:10.450Z,18.38
2022-09-01T07:29:41.729Z,18.40
2022-09-01T07:32:47.603Z,18.65
2022-09-01T07:39:57.487Z,17.23
2022-09-01T07:49:34.708Z,19.16
2022-09-01T07:52:49.810Z,19.44
2022-09-01T07:55:54.347Z,19.60
2022-09-01T07:58:57.533Z,19.77
2022-09-01T08:01:59.337Z,20.00
2022-09-01T08:05:01.028Z,20.11
2022-09-01T08:08:02.764Z,20.15
2022-09-01T08:11:04.788Z,20.31
2022-09-01T08:14:06.864Z,20.34
2022-09-01T08:20:30.444Z,20.63
2022-09-01T08:23:32.019Z,20.63
2022-09-01T08:26:33.776Z,20.48
2022-09-01T08:29:35.216Z,20.46
2022-09-01T08:32:37.681Z,20.47
2022-09-01T08:35:44.611Z,20.15
2022-09-01T08:38:46.254Z,20.05
2022-09-01T08:41:58.753Z,20.26
2022-09-01T08:45:21.627Z,20.49
2022-09-01T08:49:18.502Z,20.60
2022-09-01T08:51:51.727Z,20.83
2022-09-01T08:54:56.102Z,20.87
2022-09-01T08:58:00.860Z,21.04
2022-09-01T09:01:09.352Z,21.20
2022-09-01T09:04:32.994Z,21.04
2022-09-01T09:08:06.614Z,21.14
2022-09-01T09:11:20.914Z,21.33
2022-09-01T09:14:44.816Z,21.39
2022-09-01T09:17:59.968Z,21.43
2022-09-01T09:21:19.388Z,21.58
2022-09-01T09:24:29.013Z,21.77
2022-09-01T09:27:44.083Z,21.89
2022-09-01T09:30:45.617Z,21.81
2022-09-01T09:33:52.112Z,21.87
2022-09-01T09:36:57.004Z,22.24
2022-09-01T09:40:10.720Z,22.26
2022-09-01T09:43:15.830Z,22.63
2022-09-01T09:46:44.811Z,22.54
2022-09-01T09:49:48.864Z,22.20
2022-09-01T09:52:52.248Z,22.54
2022-09-01T09:55:57.980Z,22.43
2022-09-01T09:58:59.531Z,22.33
2022-09-01T10:02:17.676Z,22.36
2022-09-01T10:05:22.380Z,22.63
2022-09-01T10:08:27.246Z,22.65
2022-09-01T10:11:35.917Z,22.46
2022-09-01T10:14:53.300Z,22.19
2022-09-01T10:21:32.942Z,22.82
2022-09-01T10:24:39.113Z,23.07
2022-09-01T10:27:55.021Z,22.84
2022-09-01T10:30:59.019Z,23.59
2022-09-01T10:34:06.376Z,23.82
2022-09-01T10:37:10.526Z,24.20
2022-09-01T10:40:20.593Z,24.39
2022-09-01T10:43:25.838Z,23.98
2022-09-01T10:46:38.596Z,23.45
2022-09-01T10:49:46.661Z,23.94
2022-09-01T10:52:51.190Z,23.53
2022-09-01T10:56:28.530Z,23.57
2022-09-01T10:59:41.938Z,23.81
2022-09-01T11:03:32.664Z,23.70
2022-09-01T11:06:42.332Z,23.19
2022-09-01T11:09:48.671Z,23.30
2022-09-01T11:13:02.074Z,23.18
2022-09-01T11:16:52.141Z,23.01
2022-09-01T11:19:55.567Z,23.24
2022-09-01T11:22:57.309Z,23.38
2022-09-01T11:26:20.355Z,23.45
2022-09-01T11:29:57.818Z,23.67
2022-09-01T11:33:41.003Z,23.60
2022-09-01T11:36:48.475Z,23.83
2022-09-01T11:39:55.266Z,23.89
2022-09-01T11:42:58.939Z,24.46
2022-09-01T11:46:20.369Z,25.03
2022-09-01T11:49:31.742Z,25.31
2022-09-01T11:52:38.839Z,25.06
2022-09-01T11:55:45.975Z,25.08
2022-09-01T11:58:47.520Z,25.06
2022-09-01T12:01:49.780Z,24.50
2022-09-01T12:04:54.258Z,24.97
2022-09-01T12:07:57.691Z,25.23
2022-09-01T12:11:07.279Z,24.92
2022-09-01T12:14:12.022Z,24.35
2022-09-01T12:17:20.843Z,23.81
2022-09-01T12:20:30.916Z,23.70
2022-09-01T12:23:34.578Z,23.73
2022-09-01T12:26:36.139Z,23.65
2022-09-01T12:29:38.141Z,23.48
2022-09-01T12:32:39.985Z,23.63
2022-09-01T12:35:42.104Z,23.78
2022-09-01T12:38:43.647Z,23.87
2022-09-01T12:41:48.556Z,23.94
2022-09-01T12:44:57.447Z,23.97
2022-09-01T12:47:58.995Z,23.89
2022-09-01T12:51:15.551Z,23.92
2022-09-01T12:54:25.902Z,23.84
2022-09-01T12:57:34.311Z,23.83
2022-09-01T13:00:53.796Z,24.06
2022-09-01T13:04:14.272Z,24.00
2022-09-01T13:07:16.202Z,24.16
2022-09-01T13:10:17.830Z,24.18
2022-09-01T13:13:21.461Z,23.97
2022-09-01T13:16:23.624Z,24.04
2022-09-01T13:19:28.119Z,24.00
2022-09-01T13:22:31.815Z,23.81
2022-09-01T13:25:33.459Z,24.79
2022-09-01T13:28:37.509Z,25.77
2022-09-01T13:32:16.652Z,25.63
2022-09-01T13:35:06.819Z,24.68
2022-09-01T13:38:08.658Z,24.38
2022-09-01T13:41:11.676Z,24.41
2022-09-01T13:44:13.366Z,24.21
2022-09-01T13:47:30.676Z,24.40
2022-09-01T13:51:14.511Z,24.14
2022-09-01T13:53:54.961Z,24.60
2022-09-01T13:56:56.661Z,25.19
2022-09-01T13:59:58.624Z,25.17
2022-09-01T14:03:05.793Z,25.68
2022-09-01T14:06:07.520Z,25.24
2022-09-01T14:09:09.133Z,24.96
2022-09-01T14:12:11.135Z,24.56
2022-09-01T14:15:17.462Z,24.75
2022-09-01T14:18:21.749Z,24.95
2022-09-01T14:21:23.530Z,24.75
2022-09-01T14:24:26.581Z,24.77
2022-09-01T14:27:28.432Z,24.69
2022-09-01T14:30:32.095Z,25.09
2022-09-01T14:33:34.115Z,25.88
2022-09-01T14:36:35.725Z,26.27
2022-09-01T14:39:38.512Z,25.75
2022-09-01T14:42:40.162Z,25.77
2022-09-01T14:45:48.192Z,25.48
2022-09-01T14:48:50.686Z,25.34
2022-09-01T14:55:14.210Z,25.82
2022-09-01T14:58:16.059Z,26.54
2022-09-01T15:01:33.825Z,27.20
2022-09-01T15:04:36.238Z,26.79
2022-09-01T15:07:38.751Z,27.21
2022-09-01T15:10:40.399Z,26.60
2022-09-01T15:13:44.050Z,26.73
2022-09-01T15:16:47.047Z,27.05
2022-09-01T15:19:48.800Z,26.59
2022-09-01T15:22:51.651Z,26.39
2022-09-01T15:25:54.992Z,26.23
2022-09-01T15:29:01.942Z,26.07
2022-09-01T15:32:03.609Z,25.51
2022-09-01T15:35:05.810Z,25.41
2022-09-01T15:38:07.564Z,25.28
2022-09-01T15:41:09.163Z,25.18
2022-09-01T15:44:11.183Z,25.16
2022-09-01T15:47:12.966Z,25.25
2022-09-01T15:50:21.042Z,25.15
2022-09-01T15:53:23.688Z,24.84
2022-09-01T15:56:26.574Z,24.86
2022-09-01T15:59:29.232Z,24.82
2022-09-01T16:02:30.944Z,24.74
2022-09-01T16:05:35.127Z,24.75
2022-09-01T16:08:36.775Z,24.53
2022-09-01T16:11:40.802Z,24.47
2022-09-01T16:14:42.241Z,24.25
2022-09-01T16:18:14.813Z,24.38
2022-09-01T16:21:52.985Z,24.32
2022-09-01T16:25:00.226Z,24.66
2022-09-01T16:28:09.837Z,24.60
2022-09-01T16:31:21.141Z,24.71
2022-09-01T16:34:27.722Z,24.44
2022-09-01T16:37:39.832Z,24.60
2022-09-01T16:40:50.262Z,24.62
2022-09-01T16:44:23.312Z,24.68
2022-09-01T16:47:33.649Z,24.68
2022-09-01T16:51:12.995Z,24.59
2022-09-01T16:54:38.732Z,24.64
2022-09-01T16:58:00.191Z,24.52
2022-09-01T17:01:05.348Z,24.37
2022-09-01T17:04:18.986Z,24.53
2022-09-01T17:07:24.600Z,24.60
2022-09-01T17:10:46.134Z,24.70
2022-09-01T17:13:52.101Z,24.50
2022-09-01T17:17:05.256Z,24.43
2022-09-01T17:20:07.869Z,24.27
2022-09-01T17:23:15.668Z,24.15
2022-09-01T17:26:29.787Z,23.83
2022-09-01T17:29:41.083Z,23.73
2022-09-01T17:33:18.557Z,23.62
2022-09-01T17:36:35.328Z,23.13
2022-09-01T17:39:45.290Z,23.42
2022-09-01T17:43:02.723Z,23.58
2022-09-01T17:46:56.461Z,23.26
2022-09-01T17:50:00.842Z,23.24
2022-09-01T17:53:21.532Z,22.89
2022-09-01T17:56:33.614Z,23.15
2022-09-01T18:00:28.342Z,23.02
2022-09-01T18:03:45.534Z,22.85
2022-09-01T18:06:58.510Z,22.77
2022-09-01T18:10:03.177Z,22.68
2022-09-01T18:13:10.587Z,22.59
2022-09-01T18:16:16.939Z,22.50
2022-09-01T18:19:28.848Z,22.48
2022-09-01T18:22:49.131Z,22.31
2022-09-01T18:26:12.322Z,22.26
2022-09-01T18:29:14.574Z,22.11
2022-09-01T18:32:32.453Z,21.99
2022-09-01T18:35:36.815Z,21.87
2022-09-01T18:38:51.526Z,21.64
2022-09-01T18:42:04.204Z,21.37
2022-09-01T18:45:25.028Z,21.36
2022-09-01T18:48:33.589Z,21.18
2022-09-01T18:52:06.607Z,21.07
2022-09-01T18:55:13.084Z,21.00
2022-09-01T18:58:50.053Z,21.18
2022-09-01T19:02:20.574Z,21.04
2022-09-01T19:05:33.474Z,20.96
2022-09-01T19:08:52.332Z,20.75
2022-09-01T19:12:07.971Z,20.42
2022-09-01T19:15:25.003Z,20.94
2022-09-01T19:18:43.509Z,21.10
2022-09-01T19:21:49.344Z,21.32
2022-09-01T19:25:22.456Z,21.31
2022-09-01T19:28:40.758Z,21.37
2022-09-01T19:31:53.412Z,21.34
2022-09-01T19:35:06.414Z,21.39
2022-09-01T19:38:08.541Z,21.47
2022-09-01T19:41:18.449Z,21.35
2022-09-01T19:44:50.947Z,21.31
2022-09-01T19:48:10.759Z,21.38
2022-09-01T19:51:24.557Z,21.30
2022-09-01T19:54:40.262Z,21.30
2022-09-01T19:57:55.414Z,21.30
2022-09-01T20:01:01.366Z,21.30
2022-09-01T20:04:15.020Z,21.20
2022-09-01T20:07:44.209Z,21.32
2022-09-01T20:11:20.966Z,21.15
2022-09-01T20:14:31.580Z,20.95
2022-09-01T20:18:05.353Z,21.05
2022-09-01T20:21:18.904Z,20.90
2022-09-01T20:24:34.433Z,20.84
2022-09-01T20:27:48.013Z,21.24
2022-09-01T20:30:58.319Z,21.18
2022-09-01T20:34:12.029Z,21.01
2022-09-01T20:37:45.364Z,20.91
2022-09-01T20:40:49.158Z,20.83
2022-09-01T20:43:53.607Z,20.88
2022-09-01T20:46:55.188Z,20.83
2022-09-01T20:50:01.682Z,20.84
2022-09-01T20:53:11.782Z,20.76
2022-09-01T20:56:41.432Z,20.91
2022-09-01T20:59:58.060Z,20.54
2022-09-01T21:03:12.851Z,20.44
2022-09-01T21:06:41.901Z,20.35
2022-09-01T21:10:18.144Z,20.46
2022-09-01T21:13:47.445Z,20.38
2022-09-01T21:17:08.917Z,20.34
2022-09-01T21:20:42.585Z,20.47
2022-09-01T21:23:44.259Z,20.47
2022-09-01T21:26:45.880Z,20.52
2022-09-01T21:30:01.590Z,20.58
2022-09-01T21:33:04.621Z,20.73
2022-09-01T21:36:06.444Z,20.67
2022-09-01T21:39:07.964Z,20.37
2022-09-01T21:42:12.503Z,20.38
2022-09-01T21:45:15.794Z,20.09
2022-09-01T21:48:17.813Z,19.99
2022-09-01T21:51:20.885Z,19.98
2022-09-01T21:54:22.415Z,19.92
2022-09-01T21:57:24.086Z,19.71
2022-09-01T22:00:29.025Z,19.59
2022-09-01T22:03:30.506Z,19.53
2022-09-01T22:06:32.470Z,19.35
2022-09-01T22:09:34.027Z,19.23
2022-09-01T22:12:37.210Z,19.18
2022-09-01T22:15:48.177Z,18.97
2022-09-01T22:18:49.703Z,18.90
2022-09-01T22:21:52.070Z,18.86
2022-09-01T22:24:53.722Z,19.21
2022-09-01T22:27:58.110Z,18.98
2022-09-01T22:30:59.800Z,19.03
2022-09-01T22:34:01.341Z,18.97
2022-09-01T22:37:03.340Z,19.04
2022-09-01T22:40:07.043Z,19.11
2022-09-01T22:43:08.550Z,19.07
2022-09-01T22:46:10.204Z,18.87
2022-09-01T22:49:12.293Z,18.64
2022-09-01T22:52:14.091Z,18.74
2022-09-01T22:55:15.888Z,18.76
2022-09-01T22:58:17.562Z,18.63
2022-09-01T23:01:21.455Z,18.64
2022-09-01T23:04:23.050Z,18.65
2022-09-01T23:07:24.564Z,18.85
2022-09-01T23:10:26.388Z,18.71
2022-09-01T23:13:28.250Z,18.51
2022-09-01T23:16:30.861Z,18.56
2022-09-01T23:19:32.487Z,18.66
2022-09-01T23:22:34.054Z,18.53
2022-09-01T23:25:35.604Z,18.26
2022-09-01T23:28:37.895Z,18.20
2022-09-01T23:31:40.224Z,18.11
2022-09-01T23:34:42.002Z,18.42
2022-09-01T23:37:43.541Z,18.38
2022-09-01T23:40:50.588Z,18.31
2022-09-01T23:43:52.707Z,18.36
2022-09-01T23:46:54.213Z,18.26
2022-09-01T23:49:56.671Z,18.03
2022-09-01T23:52:58.210Z,17.78
2022-09-01T23:56:05.352Z,17.71
2022-09-01T23:59:07.904Z,17.83
